Time;durP1;ratioP1;P1;durP2;ratioP2;P2;SDS_P1;SDS_P2;PMS_P1;PMS_P2;Temp;Humidity;BMP_temperature;BMP_pressure;BME280_temperature;BME280_humidity;BME280_pressure;Samples;Min_cycle;Max_cycle;Signal;HPM_P1;HPM_P2
2022/11/08 00:03:28;;;;;;;14.73;2.22;;;14.50;99.90;;;;;;5093252;28;20050;-53
2022/11/08 00:14:07;;;;;;;13.20;2.80;;;13.00;99.90;;;;;;5093019;28;20088;-46
2022/11/08 00:16:33;;;;;;;15.60;2.83;;;14.50;99.90;;;;;;5093055;28;20024;-48
2022/11/08 00:18:59;;;;;;;19.17;2.72;;;14.60;99.90;;;;;;5093393;28;20054;-45
2022/11/08 00:21:24;;;;;;;12.20;2.72;;;14.60;99.90;;;;;;5093148;28;20060;-47
2022/11/08 00:23:50;;;;;;;13.48;2.92;;;14.60;99.90;;;;;;5093129;28;20016;-46
2022/11/08 00:26:16;;;;;;;16.98;2.97;;;14.70;99.90;;;;;;5092993;28;20039;-51
2022/11/08 00:28:41;;;;;;;16.58;2.50;;;14.70;99.90;;;;;;5092746;28;20427;-54
2022/11/08 00:31:07;;;;;;;19.17;2.80;;;12.50;99.90;;;;;;5086337;28;20032;-46
2022/11/08 00:33:33;;;;;;;14.48;2.80;;;14.70;99.90;;;;;;5091220;28;20016;-46
2022/11/08 00:35:59;;;;;;;14.88;2.92;;;14.50;99.90;;;;;;5093003;28;20162;-49
2022/11/08 00:38:24;;;;;;;19.02;2.50;;;14.70;99.90;;;;;;5093704;28;20036;-45
2022/11/08 00:40:50;;;;;;;21.40;2.97;;;14.70;99.90;;;;;;5093017;28;20514;-49
2022/11/08 00:43:16;;;;;;;18.77;3.25;;;14.80;99.90;;;;;;5093029;28;20028;-57
2022/11/08 00:45:41;;;;;;;20.50;3.00;;;14.80;99.90;;;;;;5092740;28;20065;-48
2022/11/08 00:48:07;;;;;;;19.17;3.15;;;14.70;99.90;;;;;;5092976;28;20080;-54
2022/11/08 00:50:33;;;;;;;13.63;2.97;;;14.80;99.90;;;;;;5092694;28;20036;-46
2022/11/08 00:52:58;;;;;;;12.25;2.20;;;14.80;99.90;;;;;;5092363;28;20016;-48
2022/11/08 00:55:24;;;;;;;12.07;2.72;;;14.80;99.90;;;;;;5092121;28;20020;-51
2022/11/08 00:57:50;;;;;;;11.25;2.72;;;14.80;99.90;;;;;;5105334;28;20020;-51
2022/11/08 01:00:16;;;;;;;14.15;2.50;;;14.80;99.90;;;;;;5113535;28;20419;-47
2022/11/08 01:02:41;;;;;;;12.27;2.95;;;14.80;99.90;;;;;;5101107;28;20024;-53
2022/11/08 01:05:07;;;;;;;17.75;3.13;;;14.80;99.90;;;;;;5106865;28;20063;-56
2022/11/08 01:07:33;;;;;;;13.93;3.17;;;14.80;99.90;;;;;;5094664;28;20103;-50
2022/11/08 01:09:58;;;;;;;23.10;3.00;;;14.80;99.90;;;;;;5112270;28;20034;-53
2022/11/08 01:12:24;;;;;;;11.40;2.42;;;14.80;99.90;;;;;;5107520;28;20042;-47
2022/11/08 01:14:50;;;;;;;12.73;3.03;;;14.90;99.90;;;;;;5091128;28;20036;-47
2022/11/08 01:17:15;;;;;;;13.45;3.67;;;14.90;99.90;;;;;;5092371;28;20049;-54
2022/11/08 01:19:41;;;;;;;17.33;3.40;;;14.80;99.90;;;;;;5091866;28;20489;-46
2022/11/08 01:22:06;;;;;;;11.95;2.60;;;14.80;99.90;;;;;;5091988;28;20020;-45
2022/11/08 01:24:32;;;;;;;12.77;2.63;;;14.90;99.90;;;;;;5092363;28;20040;-47
2022/11/08 01:26:58;;;;;;;14.45;2.42;;;14.80;99.90;;;;;;5092583;28;20016;-51
2022/11/08 01:29:23;;;;;;;17.98;4.15;;;14.90;99.90;;;;;;5092045;28;20020;-51
2022/11/08 01:31:49;;;;;;;11.88;2.47;;;14.80;99.90;;;;;;5091711;28;20395;-46
2022/11/08 01:34:14;;;;;;;16.75;2.30;;;14.90;99.90;;;;;;5091728;28;20024;-49
2022/11/08 01:36:40;;;;;;;9.48;2.42;;;14.90;99.90;;;;;;5092314;28;20020;-44
2022/11/08 01:39:05;;;;;;;8.77;2.30;;;14.90;99.90;;;;;;5099333;28;20407;-53
2022/11/08 01:41:31;;;;;;;11.38;3.10;;;15.00;99.90;;;;;;5112895;28;20023;-51
2022/11/08 01:43:58;;;;;;;10.57;2.72;;;15.00;99.90;;;;;;5111155;28;20032;-48
2022/11/08 01:46:35;;;;;;;14.85;2.40;;;15.00;99.90;;;;;;5112444;28;20136;-48
2022/11/08 01:49:09;;;;;;;12.43;2.50;;;15.00;99.90;;;;;;5112103;28;20019;-50
2022/11/08 01:52:06;;;;;;;14.88;2.67;;;15.00;99.90;;;;;;5112428;28;20042;-52
2022/11/08 01:54:59;;;;;;;7.40;1.95;;;15.00;99.90;;;;;;5104058;28;20032;-49
2022/11/08 01:57:40;;;;;;;11.70;2.72;;;15.00;99.90;;;;;;5111483;28;20487;-47
2022/11/08 02:00:09;;;;;;;13.63;2.78;;;15.00;99.90;;;;;;5112380;28;20369;-50
2022/11/08 02:02:37;;;;;;;8.93;2.27;;;14.20;99.90;;;;;;5112034;28;20016;-53
2022/11/08 02:05:06;;;;;;;11.38;2.90;;;14.90;99.90;;;;;;5112082;28;20331;-45
2022/11/08 02:07:33;;;;;;;10.57;2.15;;;14.90;99.90;;;;;;5112119;28;20022;-49
2022/11/08 02:10:00;;;;;;;11.38;2.25;;;15.00;99.90;;;;;;5112006;28;20383;-52
2022/11/08 02:12:26;;;;;;;7.53;1.85;;;15.00;99.90;;;;;;5111969;28;20024;-52
2022/11/08 02:14:52;;;;;;;14.77;3.35;;;15.00;99.90;;;;;;5112316;28;20118;-58
2022/11/08 02:17:18;;;;;;;8.10;2.40;;;15.00;99.90;;;;;;5111958;28;20422;-48
2022/11/08 02:19:47;;;;;;;10.13;1.90;;;15.00;99.90;;;;;;5111905;28;20377;-47
2022/11/08 02:22:26;;;;;;;8.90;2.25;;;15.00;99.90;;;;;;5111063;28;20073;-53
2022/11/08 02:24:53;;;;;;;9.75;2.28;;;15.00;99.90;;;;;;5111744;27;20034;-45
2022/11/08 02:27:18;;;;;;;12.73;2.80;;;15.10;99.90;;;;;;5106542;28;20506;-49
2022/11/08 02:29:44;;;;;;;10.65;2.65;;;15.10;99.90;;;;;;5111662;28;20028;-48
2022/11/08 02:32:11;;;;;;;12.77;3.33;;;15.10;99.90;;;;;;5111594;28;20035;-45
2022/11/08 02:34:50;;;;;;;12.93;3.45;;;15.20;99.90;;;;;;5111444;28;20089;-45
2022/11/08 02:37:18;;;;;;;10.95;2.65;;;15.20;99.90;;;;;;5111797;27;20107;-49
2022/11/08 02:39:46;;;;;;;14.70;3.22;;;15.10;99.90;;;;;;5110879;28;20084;-44
2022/11/08 02:42:17;;;;;;;9.30;2.38;;;15.10;99.90;;;;;;5110762;28;20055;-46
2022/11/08 02:44:43;;;;;;;7.57;2.08;;;15.10;99.90;;;;;;5111184;28;20035;-49
2022/11/08 02:47:09;;;;;;;8.52;2.20;;;15.20;99.90;;;;;;5110983;28;20016;-52
2022/11/08 02:49:35;;;;;;;11.02;2.58;;;15.10;99.90;;;;;;5111019;28;20044;-50
2022/11/08 02:52:00;;;;;;;10.82;2.17;;;15.10;99.90;;;;;;5098450;28;20023;-50
2022/11/08 02:54:26;;;;;;;7.75;2.03;;;15.10;99.90;;;;;;5090106;28;20024;-48
2022/11/08 02:56:52;;;;;;;11.13;2.15;;;15.10;99.90;;;;;;5090496;28;20032;-47
2022/11/08 02:59:17;;;;;;;7.30;1.75;;;15.00;99.90;;;;;;5090318;28;20024;-49
2022/11/08 03:01:43;;;;;;;18.98;2.80;;;15.00;99.90;;;;;;5090332;28;20031;-49
2022/11/08 03:04:08;;;;;;;8.20;1.98;;;15.00;99.90;;;;;;5090538;28;20032;-47
2022/11/08 03:06:34;;;;;;;8.68;2.15;;;15.10;99.90;;;;;;5090052;28;20032;-56
2022/11/08 03:09:00;;;;;;;12.90;2.05;;;15.00;99.90;;;;;;5090603;28;20472;-51
2022/11/08 03:11:25;;;;;;;12.43;2.33;;;15.00;99.90;;;;;;5090894;28;20417;-50
2022/11/08 03:13:51;;;;;;;8.57;2.10;;;14.90;99.90;;;;;;5090758;28;20097;-51
2022/11/08 03:16:16;;;;;;;7.78;2.08;;;15.00;99.90;;;;;;5090756;28;20384;-54
2022/11/08 03:18:42;;;;;;;7.82;2.40;;;15.00;99.90;;;;;;5089920;28;20020;-47
2022/11/08 03:21:08;;;;;;;13.10;2.75;;;13.20;99.90;;;;;;5090150;28;20089;-55
2022/11/08 03:23:34;;;;;;;8.35;2.00;;;14.90;99.90;;;;;;5090247;28;20017;-51
2022/11/08 03:26:01;;;;;;;10.55;2.38;;;14.80;99.90;;;;;;5089811;28;20038;-46
2022/11/08 03:28:27;;;;;;;9.73;2.38;;;14.70;99.90;;;;;;5090455;28;20035;-46
2022/11/08 03:30:53;;;;;;;14.25;2.60;;;14.60;99.90;;;;;;5090285;28;20032;-47
2022/11/08 03:33:19;;;;;;;13.98;2.95;;;14.50;99.90;;;;;;5092838;28;20050;-48
2022/11/08 03:35:47;;;;;;;11.13;2.22;;;14.40;99.90;;;;;;5094581;28;20431;-52
2022/11/08 03:38:13;;;;;;;9.15;2.10;;;14.30;99.90;;;;;;5080337;28;20512;-50
2022/11/08 03:40:39;;;;;;;12.20;2.15;;;14.30;99.90;;;;;;5094600;28;20111;-52
2022/11/08 03:43:04;;;;;;;9.07;2.60;;;14.30;99.90;;;;;;5093837;28;20107;-46
2022/11/08 03:45:30;;;;;;;12.02;2.80;;;14.20;99.90;;;;;;5093660;28;20063;-50
2022/11/08 03:47:55;;;;;;;8.95;2.22;;;14.20;99.90;;;;;;5094048;28;20468;-49
2022/11/08 03:50:21;;;;;;;9.02;2.17;;;14.20;99.90;;;;;;5093738;28;20020;-46
2022/11/08 03:52:50;;;;;;;9.98;2.45;;;14.20;99.90;;;;;;5093452;28;20417;-46
2022/11/08 03:55:17;;;;;;;16.33;2.72;;;14.20;99.90;;;;;;5093564;28;20031;-53
2022/11/08 03:57:45;;;;;;;12.95;2.50;;;14.20;99.90;;;;;;5094029;28;20028;-46
2022/11/08 04:00:12;;;;;;;10.10;2.13;;;12.90;99.90;;;;;;5093590;28;20024;-48
2022/11/08 04:02:38;;;;;;;9.15;2.63;;;14.00;99.90;;;;;;5094252;28;20016;-50
2022/11/08 04:05:05;;;;;;;8.93;2.30;;;14.10;99.90;;;;;;5093797;28;20035;-49
2022/11/08 04:07:31;;;;;;;12.90;2.45;;;14.10;99.90;;;;;;5093566;28;20482;-50
2022/11/08 04:09:57;;;;;;;10.85;2.78;;;14.00;99.90;;;;;;5093314;28;20419;-49
2022/11/08 04:15:15;;;;;;;8.98;2.25;;;12.00;99.90;;;;;;5093902;28;20782;-47
2022/11/08 04:23:14;;;;;;;15.68;2.55;;;13.80;99.90;;;;;;5093798;28;20084;-48
2022/11/08 04:25:40;;;;;;;18.42;3.15;;;13.80;99.90;;;;;;5093267;28;20140;-46
2022/11/08 04:28:06;;;;;;;7.78;2.28;;;13.80;99.90;;;;;;5093297;28;20055;-49
2022/11/08 04:30:32;;;;;;;13.65;2.03;;;13.70;99.90;;;;;;5093300;28;20456;-48
2022/11/08 04:33:02;;;;;;;15.60;3.20;;;16.00;99.90;;;;;;5093553;28;20095;-50
2022/11/08 04:35:29;;;;;;;11.45;2.40;;;13.30;99.90;;;;;;5093195;28;20040;-46
2022/11/08 04:37:59;;;;;;;7.40;1.85;;;14.00;99.90;;;;;;5093076;28;20020;-48
2022/11/08 04:40:26;;;;;;;8.13;1.60;;;13.60;99.90;;;;;;5093488;28;20032;-50
2022/11/08 04:42:52;;;;;;;8.20;1.98;;;12.50;99.90;;;;;;5093043;28;20020;-45
2022/11/08 04:45:17;;;;;;;13.20;2.35;;;13.60;99.90;;;;;;5091189;28;20515;-49
2022/11/08 04:47:47;;;;;;;8.75;1.88;;;13.60;99.90;;;;;;5091972;28;20366;-52
2022/11/08 04:50:13;;;;;;;6.38;1.60;;;13.60;99.90;;;;;;5092679;28;20084;-45
2022/11/08 04:52:39;;;;;;;10.23;1.83;;;13.60;99.90;;;;;;5093185;28;20111;-49
2022/11/08 04:55:05;;;;;;;8.60;1.60;;;13.50;99.90;;;;;;5093396;28;20020;-45
2022/11/08 04:57:31;;;;;;;15.98;1.92;;;13.40;99.90;;;;;;5093057;28;20503;-49
2022/11/08 04:59:56;;;;;;;10.02;1.60;;;13.40;99.90;;;;;;5093222;28;20032;-50
2022/11/08 05:02:22;;;;;;;12.27;2.60;;;13.30;99.90;;;;;;5093159;28;20035;-45
2022/11/08 05:04:48;;;;;;;14.93;2.63;;;13.30;99.90;;;;;;5092706;28;20043;-46
2022/11/08 05:07:13;;;;;;;10.52;2.10;;;13.30;99.90;;;;;;5091643;28;20510;-52
2022/11/08 05:09:39;;;;;;;15.68;2.13;;;13.30;99.90;;;;;;5092832;28;20030;-48
2022/11/08 05:12:05;;;;;;;6.68;1.77;;;13.10;99.90;;;;;;5092580;28;20427;-51
2022/11/08 05:14:30;;;;;;;9.98;1.90;;;13.40;99.90;;;;;;5092183;28;20119;-48
2022/11/08 05:16:56;;;;;;;7.78;1.60;;;13.50;99.90;;;;;;5092479;28;20031;-46
2022/11/08 05:25:05;;;;;;;8.35;1.65;;;13.40;99.90;;;;;;5092492;28;20136;-45
2022/11/08 05:27:30;;;;;;;9.55;2.20;;;13.40;99.90;;;;;;5092468;28;20044;-46
2022/11/08 05:29:56;;;;;;;6.47;1.50;;;13.40;99.90;;;;;;5092065;28;20054;-48
2022/11/08 05:32:21;;;;;;;9.00;1.25;;;13.60;99.90;;;;;;5092203;28;20099;-46
2022/11/08 05:34:47;;;;;;;3.67;1.13;;;13.40;99.90;;;;;;5092677;28;20024;-47
2022/11/08 05:37:13;;;;;;;4.25;1.02;;;13.50;99.90;;;;;;5091869;28;20493;-51
2022/11/08 05:39:38;;;;;;;7.82;1.20;;;13.40;99.90;;;;;;5091671;28;20552;-51
2022/11/08 05:42:04;;;;;;;9.45;1.30;;;13.40;99.90;;;;;;5091934;28;20024;-47
2022/11/08 05:44:30;;;;;;;11.20;1.92;;;13.50;99.90;;;;;;5091597;28;20062;-50
2022/11/08 05:46:55;;;;;;;11.23;1.42;;;13.50;99.90;;;;;;5091758;28;20020;-48
2022/11/08 05:49:21;;;;;;;9.35;1.10;;;12.80;99.90;;;;;;5091836;28;20496;-49
2022/11/08 05:51:47;;;;;;;11.52;1.20;;;13.60;99.90;;;;;;5092309;28;20020;-55
2022/11/08 05:54:13;;;;;;;8.85;1.20;;;13.70;99.90;;;;;;5091042;28;20040;-50
2022/11/08 05:56:38;;;;;;;7.50;1.23;;;13.20;99.90;;;;;;5091869;28;20024;-52
2022/11/08 05:59:04;;;;;;;7.03;1.00;;;13.70;99.90;;;;;;5091461;28;20031;-49
2022/11/08 06:01:30;;;;;;;6.72;0.98;;;15.40;99.90;;;;;;5090891;28;20032;-49
2022/11/08 06:03:56;;;;;;;5.97;1.13;;;13.60;99.90;;;;;;5091853;28;20410;-54
2022/11/08 06:06:22;;;;;;;6.15;1.42;;;13.60;99.90;;;;;;5091619;28;20028;-52
2022/11/08 06:08:48;;;;;;;7.20;1.10;;;13.60;99.90;;;;;;5091890;28;20020;-61
2022/11/08 06:11:16;;;;;;;11.63;1.58;;;14.10;99.90;;;;;;5091783;28;20024;-49
2022/11/08 06:13:42;;;;;;;10.27;1.50;;;13.70;99.90;;;;;;5091723;28;20028;-47
2022/11/08 06:16:13;;;;;;;10.00;1.77;;;13.80;99.90;;;;;;5091852;28;20073;-45
2022/11/08 06:18:39;;;;;;;8.40;1.10;;;13.80;99.90;;;;;;5091569;28;20024;-54
2022/11/08 06:21:07;;;;;;;8.75;1.27;;;13.80;99.90;;;;;;5090819;28;20105;-51
2022/11/08 06:23:33;;;;;;;10.77;1.58;;;13.70;99.90;;;;;;5090748;28;20091;-46
2022/11/08 06:25:59;;;;;;;9.43;1.58;;;14.80;99.90;;;;;;5090660;28;20111;-52
2022/11/08 06:28:26;;;;;;;10.32;1.95;;;13.70;99.90;;;;;;5091518;28;20028;-50
2022/11/08 06:30:51;;;;;;;11.07;2.42;;;13.70;99.90;;;;;;5091604;28;20060;-52
2022/11/08 06:33:18;;;;;;;10.48;1.40;;;15.30;99.90;;;;;;5091605;28;20028;-53
2022/11/08 06:35:43;;;;;;;12.77;1.30;;;13.60;99.90;;;;;;5091182;28;20139;-46
2022/11/08 06:38:09;;;;;;;11.52;1.63;;;13.70;99.90;;;;;;5091484;28;20085;-52
2022/11/08 06:40:36;;;;;;;6.18;1.00;;;13.70;99.90;;;;;;5091304;28;20024;-49
2022/11/08 06:43:02;;;;;;;12.32;1.65;;;13.70;99.90;;;;;;5091522;28;20027;-54
2022/11/08 06:45:28;;;;;;;10.30;1.80;;;13.60;99.90;;;;;;5082250;28;20115;-48
2022/11/08 06:48:02;;;;;;;7.82;1.35;;;13.60;99.90;;;;;;5089983;28;20031;-49
2022/11/08 06:50:29;;;;;;;12.48;1.50;;;13.50;99.90;;;;;;5091194;28;20117;-50
2022/11/08 06:52:58;;;;;;;9.02;1.40;;;13.50;99.90;;;;;;5090960;28;20013;-51
2022/11/08 06:55:24;;;;;;;8.38;1.50;;;13.40;99.90;;;;;;5081644;28;20028;-58
2022/11/08 06:57:50;;;;;;;16.92;1.92;;;13.40;99.90;;;;;;5090685;28;20111;-50
2022/11/08 07:00:16;;;;;;;13.93;2.00;;;13.40;99.90;;;;;;5090863;28;20059;-46
2022/11/08 07:02:43;;;;;;;16.33;2.25;;;13.40;99.90;;;;;;5091189;28;20111;-45
2022/11/08 07:05:09;;;;;;;14.93;1.80;;;13.40;99.90;;;;;;5090750;28;20115;-51
2022/11/08 07:07:35;;;;;;;15.00;1.70;;;13.70;99.90;;;;;;5090316;28;20538;-48
2022/11/08 07:10:01;;;;;;;14.77;2.28;;;13.40;99.90;;;;;;5090817;28;20024;-47
2022/11/08 07:12:26;;;;;;;11.77;1.80;;;13.50;99.90;;;;;;5090638;28;20062;-51
2022/11/08 07:14:52;;;;;;;6.80;1.40;;;13.50;99.90;;;;;;5090792;28;20089;-50
2022/11/08 07:17:17;;;;;;;8.23;1.27;;;13.60;99.90;;;;;;5090623;28;20024;-50
2022/11/08 07:19:43;;;;;;;9.65;1.67;;;13.60;99.90;;;;;;5090585;28;20089;-52
2022/11/08 07:22:09;;;;;;;14.98;1.75;;;13.60;99.90;;;;;;5090097;28;20077;-47
2022/11/08 07:24:34;;;;;;;11.88;1.77;;;13.70;99.90;;;;;;5090496;28;20082;-45
2022/11/08 07:27:00;;;;;;;12.05;1.85;;;13.60;99.90;;;;;;5090778;28;20021;-52
2022/11/08 07:29:26;;;;;;;15.07;1.90;;;13.70;99.90;;;;;;5090762;28;20052;-51
2022/11/08 07:31:51;;;;;;;10.13;2.42;;;13.60;99.90;;;;;;5090565;28;20055;-50
2022/11/08 07:34:17;;;;;;;10.63;1.90;;;13.60;99.90;;;;;;5090466;28;20024;-45
2022/11/08 07:36:42;;;;;;;12.77;2.60;;;13.60;99.90;;;;;;5090515;28;20077;-49
2022/11/08 07:39:08;;;;;;;14.60;2.10;;;13.60;99.90;;;;;;5088881;28;20377;-51
2022/11/08 07:41:34;;;;;;;12.65;1.42;;;13.70;99.90;;;;;;5090709;28;20047;-47
2022/11/08 07:43:59;;;;;;;10.38;1.77;;;13.70;99.90;;;;;;5090166;28;20031;-46
2022/11/08 07:46:25;;;;;;;10.95;1.40;;;13.80;99.90;;;;;;5090350;28;20107;-46
2022/11/08 07:48:50;;;;;;;12.68;1.67;;;13.80;99.90;;;;;;5090497;28;20023;-49
2022/11/08 07:51:16;;;;;;;11.50;1.80;;;13.90;99.90;;;;;;5090504;28;20093;-50
2022/11/08 07:53:43;;;;;;;12.80;1.70;;;13.80;99.90;;;;;;5090356;28;20032;-53
2022/11/08 07:56:09;;;;;;;6.55;1.60;;;13.90;99.90;;;;;;5089799;28;20052;-49
2022/11/08 07:58:35;;;;;;;9.98;1.83;;;13.30;99.90;;;;;;5089392;28;20520;-55
2022/11/08 08:01:02;;;;;;;9.98;1.35;;;14.00;99.90;;;;;;5089675;28;20031;-46
2022/11/08 08:03:28;;;;;;;10.45;1.98;;;14.10;99.90;;;;;;5089790;28;20020;-46
2022/11/08 08:05:54;;;;;;;6.85;1.20;;;14.10;99.90;;;;;;5089700;28;20037;-56
2022/11/08 08:08:20;;;;;;;8.80;1.33;;;14.10;99.90;;;;;;5089711;28;20046;-50
2022/11/08 08:10:46;;;;;;;7.07;1.25;;;14.20;99.90;;;;;;5090022;28;20502;-52
2022/11/08 08:13:12;;;;;;;11.07;1.90;;;14.20;99.90;;;;;;5090280;28;20039;-53
2022/11/08 08:15:38;;;;;;;9.65;1.35;;;14.30;99.90;;;;;;5090003;28;20019;-56
2022/11/08 08:18:05;;;;;;;10.38;1.65;;;14.30;99.90;;;;;;5089486;28;20032;-51
2022/11/08 08:20:32;;;;;;;7.65;1.23;;;14.40;99.90;;;;;;5091755;28;20048;-54
2022/11/08 08:22:58;;;;;;;11.50;1.52;;;14.60;99.90;;;;;;5093842;28;20388;-54
2022/11/08 08:25:24;;;;;;;9.68;1.80;;;14.80;99.90;;;;;;5093383;28;20032;-47
2022/11/08 08:27:53;;;;;;;14.30;1.60;;;15.10;99.90;;;;;;5093718;28;20052;-46
2022/11/08 08:30:19;;;;;;;10.48;1.35;;;15.10;99.90;;;;;;5093358;28;20028;-46
2022/11/08 08:32:46;;;;;;;10.35;2.40;;;15.40;99.90;;;;;;5093599;28;20035;-46
2022/11/08 08:35:12;;;;;;;12.60;1.27;;;15.50;99.90;;;;;;5093363;28;20059;-49
2022/11/08 08:37:38;;;;;;;14.00;1.63;;;15.50;99.90;;;;;;5093307;28;20023;-49
2022/11/08 08:40:04;;;;;;;11.02;1.83;;;15.50;99.90;;;;;;5092283;28;20032;-45
2022/11/08 08:42:33;;;;;;;7.22;1.65;;;16.00;99.90;;;;;;5090490;28;20157;-52
2022/11/08 08:44:58;;;;;;;12.27;1.55;;;16.00;99.90;;;;;;5082206;28;20039;-52
2022/11/08 08:47:24;;;;;;;10.60;1.73;;;14.00;99.90;;;;;;5086713;28;20029;-50
2022/11/08 08:49:50;;;;;;;13.80;1.75;;;15.30;99.90;;;;;;5089050;28;20020;-52
2022/11/08 08:52:15;;;;;;;11.25;1.33;;;14.20;99.90;;;;;;5092779;28;20485;-53
2022/11/08 08:54:41;;;;;;;14.23;1.88;;;15.90;99.90;;;;;;5092634;28;20033;-46
2022/11/08 08:57:07;;;;;;;9.15;1.73;;;15.20;99.90;;;;;;5092709;28;20393;-51
2022/11/08 08:59:33;;;;;;;12.98;1.67;;;15.00;99.90;;;;;;5092809;28;20020;-46
2022/11/08 09:01:59;;;;;;;13.07;2.42;;;14.80;99.90;;;;;;5092900;28;20114;-49
2022/11/08 09:04:26;;;;;;;9.95;1.23;;;14.70;99.90;;;;;;5092700;28;20016;-53
2022/11/08 09:06:51;;;;;;;9.90;1.55;;;14.60;99.90;;;;;;5092943;28;20020;-54
2022/11/08 09:09:17;;;;;;;10.98;2.10;;;14.50;99.90;;;;;;5074913;28;20033;-48
2022/11/08 09:11:43;;;;;;;11.15;1.60;;;14.40;99.90;;;;;;5084633;28;20024;-48
2022/11/08 09:14:08;;;;;;;7.35;1.70;;;14.40;99.90;;;;;;5092436;28;20082;-52
2022/11/08 09:16:34;;;;;;;11.93;2.00;;;14.40;99.90;;;;;;5092495;28;20024;-46
2022/11/08 09:19:00;;;;;;;12.65;1.88;;;14.50;99.90;;;;;;5092707;28;20023;-47
2022/11/08 09:21:25;;;;;;;11.27;1.63;;;14.50;99.90;;;;;;5092307;28;20516;-51
2022/11/08 09:23:51;;;;;;;12.35;1.55;;;14.50;99.90;;;;;;5089400;28;20028;-48
2022/11/08 09:26:17;;;;;;;13.07;1.70;;;14.50;99.90;;;;;;5092087;28;20543;-47
2022/11/08 09:28:43;;;;;;;15.35;2.17;;;14.40;99.90;;;;;;5091796;28;20024;-48
2022/11/08 09:31:10;;;;;;;8.55;1.95;;;14.40;99.90;;;;;;5088960;28;20103;-48
2022/11/08 09:33:38;;;;;;;10.75;1.75;;;14.50;99.90;;;;;;5091845;28;20074;-46
2022/11/08 09:36:04;;;;;;;13.85;2.28;;;14.50;99.90;;;;;;5091678;28;20012;-46
2022/11/08 09:38:30;;;;;;;13.43;1.52;;;14.70;99.90;;;;;;5091260;28;20074;-49
2022/11/08 09:40:56;;;;;;;10.23;1.63;;;14.70;99.90;;;;;;5089702;28;20020;-48
2022/11/08 09:43:42;;;;;;;16.17;2.17;;;14.70;99.90;;;;;;5090776;28;20099;-51
2022/11/08 09:46:10;;;;;;;13.80;1.65;;;14.60;99.90;;;;;;5091928;28;20177;-45
2022/11/08 09:48:42;;;;;;;14.88;2.30;;;14.50;99.90;;;;;;5091922;28;20385;-49
2022/11/08 09:51:21;;;;;;;12.27;2.13;;;14.50;99.90;;;;;;5091261;28;20016;-54
2022/11/08 09:53:48;;;;;;;16.00;1.60;;;14.60;99.90;;;;;;5088691;28;20051;-56
2022/11/08 09:56:25;;;;;;;13.77;2.67;;;14.70;99.90;;;;;;5091313;28;20035;-55
2022/11/08 09:58:53;;;;;;;14.98;1.95;;;14.80;99.90;;;;;;5091607;28;20028;-47
2022/11/08 10:01:21;;;;;;;13.77;2.78;;;14.80;99.90;;;;;;5083532;28;20075;-51
2022/11/08 10:03:50;;;;;;;10.55;1.60;;;14.90;99.90;;;;;;5078852;28;20053;-47
2022/11/08 10:06:33;;;;;;;16.35;2.30;;;15.00;99.90;;;;;;5091171;28;20040;-48
2022/11/08 10:09:36;;;;;;;14.82;2.10;;;15.00;99.90;;;;;;5077328;28;20048;-46
2022/11/08 10:12:16;;;;;;;11.55;1.67;;;15.00;99.90;;;;;;5089460;28;20024;-52
2022/11/08 10:15:06;;;;;;;16.83;2.17;;;15.10;99.90;;;;;;5077435;28;20474;-49
2022/11/08 10:17:44;;;;;;;18.20;2.28;;;15.10;99.90;;;;;;5084828;28;20032;-53
2022/11/08 10:20:14;;;;;;;12.48;1.90;;;15.10;99.90;;;;;;5085592;28;20095;-50
2022/11/08 10:22:42;;;;;;;17.70;2.60;;;15.20;99.90;;;;;;5091291;28;20031;-49
2022/11/08 10:25:28;;;;;;;14.38;1.92;;;15.40;99.90;;;;;;5084713;28;20027;-48
2022/11/08 10:27:58;;;;;;;16.60;2.03;;;15.40;99.90;;;;;;5091238;28;20032;-50
2022/11/08 10:30:30;;;;;;;19.63;2.70;;;15.70;99.90;;;;;;5091471;28;20023;-46
2022/11/08 10:32:56;;;;;;;21.23;2.95;;;15.60;99.90;;;;;;5091362;28;20024;-54
2022/11/08 10:35:30;;;;;;;12.85;2.35;;;15.50;99.90;;;;;;5091463;28;20056;-49
2022/11/08 10:37:58;;;;;;;14.63;2.28;;;15.30;99.90;;;;;;5091098;28;20061;-46
2022/11/08 10:40:40;;;;;;;14.40;2.35;;;15.20;99.90;;;;;;5084487;28;20511;-51
2022/11/08 10:43:11;;;;;;;11.32;1.88;;;13.80;99.90;;;;;;5089769;28;20023;-47
2022/11/08 10:45:36;;;;;;;14.02;1.83;;;15.30;99.90;;;;;;5090511;28;20044;-45
2022/11/08 10:48:03;;;;;;;16.40;2.75;;;15.30;99.90;;;;;;5091163;28;20024;-49
2022/11/08 10:50:42;;;;;;;11.10;1.92;;;15.30;99.90;;;;;;5090877;28;20540;-50
2022/11/08 10:53:12;;;;;;;;;;;15.40;99.90;;;;;;5076258;28;20472;-49
2022/11/08 10:55:47;;;;;;;11.18;1.92;;;15.60;99.90;;;;;;5090970;28;19954;-47
2022/11/08 10:58:34;;;;;;;14.50;2.80;;;16.10;99.90;;;;;;5090353;28;20073;-52
2022/11/08 11:01:05;;;;;;;17.10;2.35;;;16.20;99.90;;;;;;5090565;28;20526;-51
2022/11/08 11:03:31;;;;;;;12.30;2.13;;;15.80;99.90;;;;;;5090632;28;20024;-46
2022/11/08 11:06:02;;;;;;;16.80;1.92;;;15.60;99.90;;;;;;5089279;28;20093;-51
2022/11/08 11:08:28;;;;;;;15.35;2.53;;;16.10;99.90;;;;;;5089961;28;20484;-49
2022/11/08 11:10:54;;;;;;;13.13;1.83;;;15.60;99.90;;;;;;5087408;28;20096;-48
2022/11/08 11:13:25;;;;;;;15.27;2.47;;;15.70;99.90;;;;;;5088589;28;20032;-47
2022/11/08 11:15:58;;;;;;;10.38;1.77;;;16.60;99.90;;;;;;5088154;28;20102;-50
2022/11/08 11:18:44;;;;;;;15.52;2.17;;;16.60;99.90;;;;;;5088572;28;20012;-49
2022/11/08 11:21:20;;;;;;;10.85;1.98;;;17.00;99.90;;;;;;5089161;28;20048;-50
2022/11/08 11:23:54;;;;;;;12.73;2.60;;;17.40;99.90;;;;;;5089640;28;20022;-48
2022/11/08 11:26:31;;;;;;;21.73;2.75;;;17.90;99.90;;;;;;5089054;28;20040;-52
2022/11/08 11:29:03;;;;;;;16.65;2.30;;;17.20;99.90;;;;;;5082655;28;20020;-47
2022/11/08 11:31:33;;;;;;;20.92;2.80;;;16.80;99.90;;;;;;5072450;28;20050;-46
2022/11/08 11:34:19;;;;;;;10.90;2.30;;;16.50;99.90;;;;;;5088708;28;20473;-47
2022/11/08 11:36:52;;;;;;;14.30;2.33;;;16.80;99.90;;;;;;5090089;28;20028;-46
2022/11/08 11:39:50;;;;;;;14.25;2.05;;;16.90;99.90;;;;;;5078180;28;20024;-46
2022/11/08 11:42:36;;;;;;;12.90;2.20;;;16.70;99.90;;;;;;5082998;28;20035;-53
2022/11/08 11:45:19;;;;;;;18.08;2.85;;;16.40;99.90;;;;;;5086226;28;20468;-48
2022/11/08 11:47:54;;;;;;;21.50;2.75;;;16.10;99.90;;;;;;5088594;28;20039;-48
2022/11/08 11:50:38;;;;;;;15.18;2.88;;;16.20;99.90;;;;;;5089108;28;20106;-52
2022/11/08 11:53:10;;;;;;;12.60;2.10;;;15.70;99.90;;;;;;5089945;28;20049;-48
2022/11/08 11:55:45;;;;;;;20.70;2.78;;;15.90;99.90;;;;;;5075629;28;20458;-48
2022/11/08 11:58:20;;;;;;;12.23;2.05;;;16.80;99.90;;;;;;5090624;28;20020;-52
2022/11/08 12:00:55;;;;;;;15.65;2.90;;;18.10;99.90;;;;;;5090430;28;20059;-46
2022/11/08 12:03:29;;;;;;;14.70;2.10;;;18.70;99.90;;;;;;5092206;28;20028;-53
2022/11/08 12:06:04;;;;;;;16.15;2.60;;;18.00;99.90;;;;;;5092177;28;20434;-45
2022/11/08 12:08:44;;;;;;;16.13;2.33;;;18.50;99.90;;;;;;5091341;28;20020;-47
2022/11/08 12:11:42;;;;;;;13.15;2.17;;;18.40;99.90;;;;;;5091456;28;20427;-50
2022/11/08 12:14:18;;;;;;;15.25;3.08;;;18.10;99.90;;;;;;5082780;28;20032;-45
2022/11/08 12:17:13;;;;;;;12.57;2.42;;;17.30;99.90;;;;;;5088277;28;20031;-47
2022/11/08 12:20:06;;;;;;;10.23;2.47;;;18.30;99.90;;;;;;5087012;28;20086;-51
2022/11/08 12:22:56;;;;;;;13.93;2.65;;;18.70;99.90;;;;;;5093611;28;20023;-49
2022/11/08 12:25:39;;;;;;;13.68;2.58;;;17.90;99.90;;;;;;5088773;28;20032;-48
2022/11/08 12:28:44;;;;;;;17.33;2.78;;;16.90;99.90;;;;;;5090652;28;20069;-47
2022/11/08 12:31:25;;;;;;;16.65;2.85;;;16.80;99.90;;;;;;5083339;28;20039;-48
2022/11/08 12:34:16;;;;;;;18.83;2.65;;;16.70;99.90;;;;;;5077548;28;20043;-51
2022/11/08 12:37:19;;;;;;;13.27;2.25;;;16.50;99.90;;;;;;5090828;28;20032;-54
2022/11/08 12:39:48;;;;;;;16.33;3.17;;;16.30;99.90;;;;;;5091134;28;20415;-51
2022/11/08 12:42:43;;;;;;;19.50;2.50;;;16.60;99.90;;;;;;5089453;28;20408;-53
2022/11/08 12:45:36;;;;;;;16.98;2.97;;;16.30;99.90;;;;;;5080952;28;20082;-52
2022/11/08 12:48:29;;;;;;;18.38;2.50;;;16.20;99.90;;;;;;5091117;28;20071;-49
2022/11/08 12:51:21;;;;;;;19.98;3.35;;;16.00;99.90;;;;;;5092051;28;20058;-51
2022/11/08 12:54:11;;;;;;;17.67;3.10;;;15.80;99.90;;;;;;5091694;28;20078;-52
2022/11/08 12:56:42;;;;;;;18.75;3.42;;;16.00;99.90;;;;;;5090435;28;20024;-49
2022/11/08 12:59:35;;;;;;;19.27;2.90;;;16.30;99.90;;;;;;5090629;28;20024;-50
2022/11/08 13:02:03;;;;;;;16.30;2.90;;;16.60;99.90;;;;;;5078800;28;20037;-53
2022/11/08 13:04:39;;;;;;;17.05;3.10;;;16.60;99.90;;;;;;5086036;28;20050;-46
2022/11/08 13:07:23;;;;;;;17.60;2.70;;;16.40;99.90;;;;;;5082660;28;20031;-52
2022/11/08 13:10:03;;;;;;;17.02;2.30;;;16.10;99.90;;;;;;5086504;28;20045;-49
2022/11/08 13:12:38;;;;;;;23.25;3.00;;;15.90;99.90;;;;;;5089535;28;20016;-51
2022/11/08 13:15:12;;;;;;;16.50;3.35;;;14.80;99.90;;;;;;5087301;28;20028;-50
2022/11/08 13:17:38;;;;;;;17.25;2.55;;;15.70;99.90;;;;;;5087695;28;20107;-47